createdAt,value
2018-12-10T00:01:47.550Z,85.80
2018-12-10T00:04:15.944Z,85.10
2018-12-10T00:06:45.013Z,84.80
2018-12-10T00:09:13.960Z,84.80
2018-12-10T00:11:42.974Z,85.50
2018-12-10T00:14:11.929Z,84.60
2018-12-10T00:16:40.441Z,84.80
2018-12-10T00:19:09.606Z,85.00
2018-12-10T00:21:38.020Z,85.30
2018-12-10T00:24:06.391Z,85.30
2018-12-10T00:26:35.092Z,86.00
2018-12-10T00:29:03.490Z,85.10
2018-12-10T00:31:31.886Z,85.10
2018-12-10T00:34:00.940Z,85.10
2018-12-10T00:36:29.427Z,85.70
2018-12-10T00:38:57.840Z,86.00
2018-12-10T00:41:26.234Z,85.30
2018-12-10T00:43:54.656Z,85.10
2018-12-10T00:46:23.059Z,85.50
2018-12-10T00:48:51.521Z,84.40
2018-12-10T00:51:19.896Z,84.00
2018-12-10T00:53:48.357Z,84.20
2018-12-10T00:56:17.305Z,83.60
2018-12-10T00:58:45.761Z,83.20
2018-12-10T01:01:14.855Z,84.00
2018-12-10T01:03:43.841Z,84.20
2018-12-10T01:06:12.238Z,84.60
2018-12-10T01:08:40.693Z,84.80
2018-12-10T01:11:09.103Z,84.80
2018-12-10T01:13:37.555Z,85.00
2018-12-10T01:16:06.023Z,84.30
2018-12-10T01:18:34.445Z,84.50
2018-12-10T01:21:02.811Z,84.00
2018-12-10T01:23:32.309Z,83.90
2018-12-10T01:26:01.196Z,83.80
2018-12-10T01:28:30.088Z,83.30
2018-12-10T01:30:58.480Z,83.20
2018-12-10T01:33:26.892Z,83.80
2018-12-10T01:35:55.320Z,84.00
2018-12-10T01:38:23.803Z,85.10
2018-12-10T01:40:52.282Z,84.90
2018-12-10T01:43:20.766Z,85.10
2018-12-10T01:45:49.146Z,85.80
2018-12-10T01:48:17.624Z,85.60
2018-12-10T01:50:46.010Z,85.00
2018-12-10T01:53:14.477Z,85.10
2018-12-10T01:55:42.958Z,84.50
2018-12-10T01:58:11.372Z,84.60
2018-12-10T02:00:39.771Z,84.60
2018-12-10T02:03:08.191Z,84.60
2018-12-10T02:05:36.593Z,84.30
2018-12-10T02:08:05.055Z,84.50
2018-12-10T02:10:34.141Z,84.10
2018-12-10T02:13:02.532Z,84.50
2018-12-10T02:15:30.939Z,84.50
2018-12-10T02:17:59.948Z,84.60
2018-12-10T02:20:28.367Z,84.20
2018-12-10T02:22:56.757Z,84.70
2018-12-10T02:25:25.271Z,84.50
2018-12-10T02:27:53.648Z,84.50
2018-12-10T02:30:22.060Z,84.10
2018-12-10T02:32:50.553Z,84.60
2018-12-10T02:35:18.966Z,84.60
2018-12-10T02:37:47.445Z,84.80
2018-12-10T02:40:15.951Z,84.90
2018-12-10T02:42:44.345Z,84.90
2018-12-10T02:45:13.307Z,85.10
2018-12-10T02:47:41.772Z,85.30
2018-12-10T02:50:10.174Z,85.50
2018-12-10T02:52:38.565Z,85.30
2018-12-10T02:55:07.075Z,85.80
2018-12-10T02:57:35.601Z,85.00
2018-12-10T03:00:05.036Z,85.40
2018-12-10T03:02:33.513Z,85.30
2018-12-10T03:05:01.918Z,85.00
2018-12-10T03:07:30.552Z,84.80
2018-12-10T03:09:58.977Z,85.00
2018-12-10T03:12:27.364Z,84.40
2018-12-10T03:14:55.770Z,84.50
2018-12-10T03:17:24.284Z,84.60
2018-12-10T03:19:52.754Z,83.90
2018-12-10T03:22:21.263Z,83.50
2018-12-10T03:24:49.667Z,84.10
2018-12-10T03:27:18.052Z,85.50
2018-12-10T03:29:46.455Z,86.70
2018-12-10T03:32:14.858Z,87.80
2018-12-10T03:34:43.269Z,88.80
2018-12-10T03:37:11.709Z,89.30
2018-12-10T03:39:40.088Z,90.00
2018-12-10T03:42:08.490Z,90.10
2018-12-10T03:44:36.872Z,90.30
2018-12-10T03:47:05.946Z,90.30
2018-12-10T03:49:34.376Z,90.30
2018-12-10T03:52:02.800Z,90.30
2018-12-10T03:54:31.896Z,90.40
2018-12-10T03:57:00.305Z,90.50
2018-12-10T03:59:28.683Z,90.40
2018-12-10T04:01:57.166Z,90.40
2018-12-10T04:04:25.565Z,90.30
2018-12-10T04:06:54.216Z,90.40
2018-12-10T04:09:22.612Z,90.30
2018-12-10T04:11:51.001Z,90.40
2018-12-10T04:14:19.403Z,90.50
2018-12-10T04:16:47.816Z,90.60
2018-12-10T04:19:16.217Z,90.70
2018-12-10T04:21:44.654Z,90.80
2018-12-10T04:24:13.304Z,90.80
2018-12-10T04:26:41.765Z,91.20
2018-12-10T04:29:10.234Z,90.90
2018-12-10T04:31:38.641Z,90.80
2018-12-10T04:34:07.428Z,90.80
2018-12-10T04:36:35.825Z,90.80
2018-12-10T04:39:05.828Z,90.90
2018-12-10T04:41:34.269Z,91.00
2018-12-10T04:44:02.671Z,90.90
2018-12-10T04:46:31.067Z,91.00
2018-12-10T04:48:59.596Z,91.00
2018-12-10T04:51:28.008Z,90.90
2018-12-10T04:53:56.464Z,91.20
2018-12-10T04:56:24.925Z,90.80
2018-12-10T04:58:53.366Z,90.80
2018-12-10T05:01:21.814Z,90.60
2018-12-10T05:03:50.208Z,90.60
2018-12-10T05:06:18.598Z,90.50
2018-12-10T05:08:47.009Z,90.60
2018-12-10T05:11:15.415Z,90.40
2018-12-10T05:13:43.927Z,90.30
2018-12-10T05:16:12.333Z,90.30
2018-12-10T05:18:40.719Z,90.30
2018-12-10T05:21:09.252Z,90.30
2018-12-10T05:23:37.629Z,90.20
2018-12-10T05:26:06.038Z,90.20
2018-12-10T05:28:34.479Z,90.20
2018-12-10T05:31:02.867Z,90.30
2018-12-10T05:33:31.347Z,90.40
2018-12-10T05:35:59.854Z,90.20
2018-12-10T05:38:28.437Z,90.30
2018-12-10T05:40:56.885Z,90.30
2018-12-10T05:43:25.285Z,90.30
2018-12-10T05:45:55.604Z,90.10
2018-12-10T05:48:24.113Z,90.00
2018-12-10T05:50:52.557Z,90.00
2018-12-10T05:53:20.984Z,90.00
2018-12-10T05:55:49.435Z,90.00
2018-12-10T05:58:17.882Z,89.90
2018-12-10T06:00:46.471Z,89.60
2018-12-10T06:03:14.975Z,89.90
2018-12-10T06:05:44.104Z,89.60
2018-12-10T06:08:12.504Z,89.60
2018-12-10T06:10:41.048Z,89.40
2018-12-10T06:13:09.531Z,89.30
2018-12-10T06:15:37.932Z,89.40
2018-12-10T06:18:06.346Z,89.20
2018-12-10T06:20:34.721Z,89.10
2018-12-10T06:23:03.138Z,89.30
2018-12-10T06:25:32.701Z,89.20
2018-12-10T06:28:01.106Z,89.10
2018-12-10T06:30:29.495Z,89.10
2018-12-10T06:32:57.928Z,89.10
2018-12-10T06:35:26.360Z,88.90
2018-12-10T06:37:54.779Z,88.80
2018-12-10T06:40:23.206Z,88.90
2018-12-10T06:42:51.682Z,89.00
2018-12-10T06:45:20.179Z,89.00
2018-12-10T06:47:48.771Z,88.90
2018-12-10T06:50:17.179Z,88.80
2018-12-10T06:52:45.618Z,88.40
2018-12-10T06:55:14.011Z,88.10
2018-12-10T06:57:42.485Z,88.00
2018-12-10T07:00:11.365Z,88.20
2018-12-10T07:02:39.817Z,88.40
2018-12-10T07:05:08.301Z,88.70
2018-12-10T07:07:36.723Z,88.80
2018-12-10T07:10:06.661Z,88.50
2018-12-10T07:12:35.492Z,88.40
2018-12-10T07:15:04.610Z,88.40
2018-12-10T07:17:33.013Z,88.20
2018-12-10T07:20:01.469Z,87.90
2018-12-10T07:22:29.932Z,87.40
2018-12-10T07:24:58.450Z,87.60
2018-12-10T07:27:26.845Z,87.50
2018-12-10T07:29:55.292Z,87.50
2018-12-10T07:32:23.785Z,87.60
2018-12-10T07:34:52.187Z,87.80
2018-12-10T07:37:20.619Z,87.50
2018-12-10T07:39:49.013Z,86.90
2018-12-10T07:42:17.520Z,87.00
2018-12-10T07:44:45.974Z,87.10
2018-12-10T07:47:14.363Z,87.10
2018-12-10T07:49:42.762Z,87.10
2018-12-10T07:52:11.201Z,86.90
2018-12-10T07:54:39.592Z,86.80
2018-12-10T07:57:07.976Z,86.90
2018-12-10T07:59:36.463Z,86.70
2018-12-10T08:02:05.102Z,86.70
2018-12-10T08:04:33.516Z,86.50
2018-12-10T08:07:01.980Z,86.40
2018-12-10T08:09:30.374Z,86.50
2018-12-10T08:11:58.782Z,86.90
2018-12-10T08:14:27.220Z,87.30
2018-12-10T08:16:55.632Z,87.40
2018-12-10T08:19:24.030Z,88.20
2018-12-10T08:21:52.499Z,88.40
2018-12-10T08:24:20.891Z,88.30
2018-12-10T08:26:49.290Z,88.60
2018-12-10T08:29:17.726Z,88.70
2018-12-10T08:31:46.164Z,88.60
2018-12-10T08:34:14.734Z,88.60
2018-12-10T08:36:43.147Z,88.90
2018-12-10T08:39:11.564Z,88.70
2018-12-10T08:41:40.829Z,88.80
2018-12-10T08:44:10.996Z,88.40
2018-12-10T08:46:39.402Z,88.40
2018-12-10T08:49:07.792Z,88.20
2018-12-10T08:51:36.230Z,87.20
2018-12-10T08:54:04.722Z,86.60
2018-12-10T08:56:34.410Z,86.00
2018-12-10T08:59:03.252Z,86.40
2018-12-10T09:01:31.646Z,87.50
2018-12-10T09:04:00.117Z,88.10
2018-12-10T09:06:28.547Z,88.20
2018-12-10T09:08:57.128Z,88.30
2018-12-10T09:11:25.540Z,88.50
2018-12-10T09:13:53.954Z,88.40
2018-12-10T09:16:22.390Z,88.90
2018-12-10T09:18:51.039Z,88.80
2018-12-10T09:21:19.437Z,88.90
2018-12-10T09:23:48.115Z,89.00
2018-12-10T09:26:16.503Z,89.30
2018-12-10T09:28:44.923Z,89.40
2018-12-10T09:31:13.347Z,88.60
2018-12-10T09:33:41.735Z,88.40
2018-12-10T09:36:10.181Z,87.10
2018-12-10T09:38:38.568Z,86.50
2018-12-10T09:41:07.125Z,86.10
2018-12-10T09:43:35.623Z,85.20
2018-12-10T09:46:04.059Z,85.10
2018-12-10T09:48:32.483Z,84.60
2018-12-10T09:51:00.897Z,84.10
2018-12-10T09:53:29.653Z,84.20
2018-12-10T09:55:58.103Z,84.30
2018-12-10T09:58:26.507Z,84.30
2018-12-10T10:00:55.001Z,84.60
2018-12-10T10:03:23.395Z,84.20
2018-12-10T10:05:51.823Z,82.60
2018-12-10T10:08:20.209Z,82.30
2018-12-10T10:10:48.602Z,81.30
2018-12-10T10:13:17.577Z,80.80
2018-12-10T10:15:46.610Z,80.40
2018-12-10T10:18:15.070Z,80.10
2018-12-10T10:20:43.480Z,80.60
2018-12-10T10:23:11.871Z,81.00
2018-12-10T10:25:40.277Z,80.80
2018-12-10T10:28:09.116Z,81.00
2018-12-10T10:30:37.596Z,81.20
2018-12-10T10:33:06.064Z,81.50
2018-12-10T10:35:34.500Z,80.70
2018-12-10T10:38:02.894Z,81.00
2018-12-10T10:40:31.297Z,81.00
2018-12-10T10:43:00.506Z,80.90
2018-12-10T10:45:34.710Z,80.40
2018-12-10T10:48:00.016Z,79.60
2018-12-10T10:50:28.511Z,79.80
2018-12-10T10:52:56.998Z,79.70
2018-12-10T10:55:25.375Z,79.30
2018-12-10T10:57:53.818Z,79.80
2018-12-10T11:00:27.699Z,79.50
2018-12-10T11:02:57.919Z,80.30
2018-12-10T11:05:26.326Z,80.00
2018-12-10T11:07:54.735Z,79.50
2018-12-10T11:10:23.142Z,79.10
2018-12-10T11:12:51.537Z,79.00
2018-12-10T11:15:20.084Z,79.20
2018-12-10T11:17:48.559Z,78.60
2018-12-10T11:20:16.948Z,77.60
2018-12-10T11:22:45.471Z,76.00
2018-12-10T11:25:14.039Z,75.60
2018-12-10T11:27:42.462Z,75.50
2018-12-10T11:30:10.945Z,75.50
2018-12-10T11:32:39.933Z,76.50
2018-12-10T11:35:08.451Z,77.00
2018-12-10T11:37:36.855Z,77.50
2018-12-10T11:40:05.685Z,77.70
2018-12-10T11:42:34.179Z,77.80
2018-12-10T11:45:02.558Z,77.10
2018-12-10T11:47:31.023Z,76.40
2018-12-10T11:49:59.995Z,76.30
2018-12-10T11:52:29.019Z,74.10
2018-12-10T11:54:58.029Z,74.00
2018-12-10T11:57:27.012Z,74.10
2018-12-10T11:59:55.430Z,73.60
2018-12-10T12:02:29.724Z,72.00
2018-12-10T12:04:55.002Z,72.20
2018-12-10T12:07:23.990Z,72.20
2018-12-10T12:09:52.505Z,72.40
2018-12-10T12:12:21.474Z,72.30
2018-12-10T12:14:50.490Z,71.80
2018-12-10T12:17:19.556Z,71.30
2018-12-10T12:19:48.001Z,71.10
2018-12-10T12:22:16.955Z,72.40
2018-12-10T12:24:45.955Z,71.60
2018-12-10T12:27:14.390Z,71.50
2018-12-10T12:29:42.793Z,71.60
2018-12-10T12:32:11.813Z,71.30
2018-12-10T12:34:40.203Z,71.10
2018-12-10T12:37:08.747Z,71.60
2018-12-10T12:39:37.174Z,72.00
2018-12-10T12:42:05.628Z,71.90
2018-12-10T12:44:34.084Z,71.80
2018-12-10T12:47:02.530Z,72.10
2018-12-10T12:49:31.554Z,72.00
2018-12-10T12:51:59.973Z,72.50
2018-12-10T12:54:28.513Z,72.70
2018-12-10T12:56:56.912Z,72.40
2018-12-10T12:59:25.317Z,71.80
2018-12-10T13:01:54.110Z,72.30
2018-12-10T13:04:22.537Z,72.80
2018-12-10T13:06:51.049Z,73.20
2018-12-10T13:09:21.916Z,73.30
2018-12-10T13:11:50.267Z,73.50
2018-12-10T13:14:19.464Z,73.60
2018-12-10T13:16:49.721Z,73.60
2018-12-10T13:19:19.356Z,73.10
2018-12-10T13:21:48.118Z,73.10
2018-12-10T13:24:16.570Z,73.50
2018-12-10T13:26:45.002Z,73.10
2018-12-10T13:29:13.803Z,73.10
2018-12-10T13:31:43.157Z,73.70
2018-12-10T13:34:11.574Z,73.90
2018-12-10T13:36:39.985Z,74.30
2018-12-10T13:39:08.403Z,75.40
2018-12-10T13:41:38.573Z,75.50
2018-12-10T13:44:07.023Z,75.60
2018-12-10T13:46:35.455Z,76.10
2018-12-10T13:49:03.915Z,76.70
2018-12-10T13:51:33.123Z,77.20
2018-12-10T13:54:01.521Z,78.10
2018-12-10T13:56:29.945Z,78.60
2018-12-10T13:58:58.349Z,79.00
2018-12-10T14:01:26.828Z,79.10
2018-12-10T14:03:55.313Z,79.90
2018-12-10T14:06:23.758Z,79.20
2018-12-10T14:08:52.194Z,79.00
2018-12-10T14:11:21.250Z,78.80
2018-12-10T14:13:49.768Z,78.60
2018-12-10T14:16:18.234Z,78.00
2018-12-10T14:18:46.673Z,77.60
2018-12-10T14:21:15.087Z,77.40
2018-12-10T14:23:44.305Z,76.80
2018-12-10T14:26:12.696Z,76.30
2018-12-10T14:28:41.163Z,76.40
2018-12-10T14:31:09.767Z,76.10
2018-12-10T14:33:38.223Z,75.90
2018-12-10T14:36:06.717Z,76.10
2018-12-10T14:38:36.901Z,76.40
2018-12-10T14:41:06.027Z,76.30
2018-12-10T14:43:34.508Z,76.60
2018-12-10T14:46:03.778Z,76.50
2018-12-10T14:48:32.436Z,76.70
2018-12-10T14:51:00.861Z,76.80
2018-12-10T14:53:29.416Z,77.10
2018-12-10T14:55:57.904Z,77.50
2018-12-10T14:58:26.328Z,77.80
2018-12-10T15:00:54.747Z,78.10
2018-12-10T15:03:23.130Z,78.30
2018-12-10T15:05:51.632Z,78.50
2018-12-10T15:08:20.790Z,78.60
2018-12-10T15:10:49.202Z,79.00
2018-12-10T15:13:17.606Z,79.10
2018-12-10T15:15:46.020Z,79.10
2018-12-10T15:18:14.684Z,79.40
2018-12-10T15:20:43.157Z,80.00
2018-12-10T15:23:11.639Z,80.20
2018-12-10T15:25:40.077Z,80.30
2018-12-10T15:28:08.607Z,80.50
2018-12-10T15:30:37.051Z,80.70
2018-12-10T15:33:06.260Z,80.90
2018-12-10T15:35:34.671Z,81.40
2018-12-10T15:38:03.137Z,81.80
2018-12-10T15:40:31.629Z,81.70
2018-12-10T15:43:00.736Z,81.80
2018-12-10T15:45:29.198Z,81.80
2018-12-10T15:47:57.659Z,81.40
2018-12-10T15:50:26.056Z,81.20
2018-12-10T15:52:54.547Z,81.20
2018-12-10T15:55:22.943Z,81.40
2018-12-10T15:57:51.358Z,81.60
2018-12-10T16:00:20.098Z,81.60
2018-12-10T16:02:48.508Z,81.70
2018-12-10T16:05:16.898Z,82.20
2018-12-10T16:07:45.410Z,82.70
2018-12-10T16:10:14.522Z,83.00
2018-12-10T16:12:42.924Z,83.30
2018-12-10T16:15:11.358Z,83.50
2018-12-10T16:17:40.271Z,83.90
2018-12-10T16:20:09.348Z,83.90
2018-12-10T16:22:37.770Z,83.70
2018-12-10T16:25:06.328Z,83.40
2018-12-10T16:27:35.015Z,83.30
2018-12-10T16:30:03.890Z,83.10
2018-12-10T16:32:32.907Z,83.00
2018-12-10T16:35:01.774Z,82.70
2018-12-10T16:37:30.170Z,82.50
2018-12-10T16:39:58.763Z,82.40
2018-12-10T16:42:27.167Z,82.20
2018-12-10T16:44:55.601Z,81.90
2018-12-10T16:47:24.107Z,81.20
2018-12-10T16:49:52.484Z,80.20
2018-12-10T16:52:20.905Z,80.20
2018-12-10T16:54:49.317Z,80.10
2018-12-10T16:57:17.726Z,80.30
2018-12-10T16:59:46.235Z,80.00
2018-12-10T17:02:14.641Z,80.20
2018-12-10T17:04:43.068Z,80.40
2018-12-10T17:07:11.474Z,80.70
2018-12-10T17:09:40.450Z,80.80
2018-12-10T17:12:08.917Z,80.90
2018-12-10T17:14:37.467Z,80.40
2018-12-10T17:17:05.883Z,80.00
2018-12-10T17:19:34.350Z,79.90
2018-12-10T17:22:02.874Z,79.40
2018-12-10T17:24:31.260Z,79.20
2018-12-10T17:26:59.695Z,79.20
2018-12-10T17:29:28.163Z,79.00
2018-12-10T17:31:56.576Z,78.90
2018-12-10T17:34:24.998Z,78.60
2018-12-10T17:36:53.454Z,78.90
2018-12-10T17:39:21.995Z,79.00
2018-12-10T17:41:50.496Z,78.70
2018-12-10T17:44:18.898Z,78.90
2018-12-10T17:46:47.356Z,78.70
2018-12-10T17:49:16.389Z,78.70
2018-12-10T17:51:44.787Z,78.80
2018-12-10T17:54:13.288Z,78.90
2018-12-10T17:56:41.868Z,79.00
2018-12-10T17:59:10.422Z,78.80
2018-12-10T18:01:38.874Z,78.90
2018-12-10T18:04:07.391Z,79.90
2018-12-10T18:06:35.805Z,79.10
2018-12-10T18:09:06.810Z,79.20
2018-12-10T18:11:35.332Z,79.40
2018-12-10T18:14:03.801Z,80.20
2018-12-10T18:16:32.275Z,79.20
2018-12-10T18:19:00.665Z,79.30
2018-12-10T18:21:29.095Z,79.30
2018-12-10T18:23:57.500Z,79.20
2018-12-10T18:26:25.911Z,79.20
2018-12-10T18:28:54.305Z,79.20
2018-12-10T18:31:22.815Z,79.40
2018-12-10T18:33:51.561Z,79.50
2018-12-10T18:36:20.007Z,79.80
2018-12-10T18:38:48.423Z,80.00
2018-12-10T18:41:16.833Z,80.20
2018-12-10T18:43:45.217Z,80.40
2018-12-10T18:46:13.703Z,80.40
2018-12-10T18:48:42.151Z,80.70
2018-12-10T18:51:10.703Z,80.80
2018-12-10T18:53:39.093Z,80.70
2018-12-10T18:56:07.525Z,80.80
2018-12-10T18:58:36.027Z,80.90
2018-12-10T19:01:04.475Z,81.00
2018-12-10T19:03:32.877Z,81.00
2018-12-10T19:06:01.365Z,80.90
2018-12-10T19:08:29.764Z,81.00
2018-12-10T19:10:58.151Z,81.00
2018-12-10T19:13:26.606Z,81.20
2018-12-10T19:15:55.259Z,81.70
2018-12-10T19:18:23.687Z,81.60
2018-12-10T19:20:52.128Z,82.20
2018-12-10T19:23:20.631Z,83.00
2018-12-10T19:25:49.098Z,83.00
2018-12-10T19:28:17.573Z,83.50
2018-12-10T19:30:46.002Z,84.20
2018-12-10T19:33:14.386Z,84.10
2018-12-10T19:35:42.804Z,84.40
2018-12-10T19:38:11.180Z,84.60
2018-12-10T19:40:39.635Z,84.70
2018-12-10T19:43:08.091Z,85.00
2018-12-10T19:45:36.587Z,84.90
2018-12-10T19:48:05.166Z,84.90
2018-12-10T19:50:33.632Z,85.30
2018-12-10T19:53:02.098Z,85.20
2018-12-10T19:55:30.516Z,85.40
2018-12-10T19:57:58.922Z,86.40
2018-12-10T20:00:27.498Z,85.70
2018-12-10T20:02:55.890Z,86.00
2018-12-10T20:05:26.089Z,86.40
2018-12-10T20:07:54.537Z,86.50
2018-12-10T20:10:22.974Z,86.90
2018-12-10T20:12:51.366Z,86.90
2018-12-10T20:15:19.760Z,87.20
2018-12-10T20:17:48.199Z,87.10
2018-12-10T20:20:16.649Z,87.40
2018-12-10T20:22:45.037Z,87.70
2018-12-10T20:25:13.986Z,87.60
2018-12-10T20:27:43.923Z,87.70
2018-12-10T20:30:13.326Z,87.70
2018-12-10T20:32:42.012Z,87.70
2018-12-10T20:35:10.680Z,87.60
2018-12-10T20:37:39.339Z,87.60
2018-12-10T20:40:08.059Z,87.40
2018-12-10T20:42:36.538Z,87.30
2018-12-10T20:45:06.375Z,87.20
2018-12-10T20:47:34.775Z,87.70
2018-12-10T20:50:04.602Z,87.70
2018-12-10T20:52:32.997Z,88.10
2018-12-10T20:55:01.419Z,88.90
2018-12-10T20:57:29.818Z,90.00
2018-12-10T20:59:58.205Z,89.70
2018-12-10T21:02:29.267Z,90.00
2018-12-10T21:04:56.995Z,90.40
2018-12-10T21:07:25.415Z,90.50
2018-12-10T21:09:53.810Z,90.70
2018-12-10T21:12:22.318Z,90.80
2018-12-10T21:14:50.753Z,90.80
2018-12-10T21:17:19.225Z,91.00
2018-12-10T21:19:47.938Z,90.80
2018-12-10T21:22:16.337Z,90.80
2018-12-10T21:24:44.795Z,90.80
2018-12-10T21:27:13.297Z,90.80
2018-12-10T21:29:41.754Z,90.80
2018-12-10T21:32:10.150Z,90.70
2018-12-10T21:34:38.542Z,90.70
2018-12-10T21:37:07.005Z,90.60
2018-12-10T21:39:35.398Z,90.50
2018-12-10T21:42:03.861Z,90.40
2018-12-10T21:44:32.250Z,90.40
2018-12-10T21:47:00.734Z,90.40
2018-12-10T21:49:29.109Z,90.30
2018-12-10T21:51:57.530Z,90.20
2018-12-10T21:54:26.017Z,90.20
2018-12-10T21:56:54.436Z,90.10
2018-12-10T21:59:22.846Z,90.10
2018-12-10T22:01:51.444Z,90.10
2018-12-10T22:04:19.839Z,90.10
2018-12-10T22:06:48.252Z,90.00
2018-12-10T22:09:16.773Z,89.90
2018-12-10T22:11:45.159Z,90.00
2018-12-10T22:14:13.894Z,90.00
2018-12-10T22:16:42.312Z,90.00
2018-12-10T22:19:10.702Z,90.20
2018-12-10T22:21:39.134Z,90.00
2018-12-10T22:24:07.531Z,90.10
2018-12-10T22:26:36.644Z,90.00
2018-12-10T22:29:05.290Z,90.00
2018-12-10T22:31:33.709Z,90.20
2018-12-10T22:34:02.166Z,90.60
2018-12-10T22:36:30.565Z,91.00
2018-12-10T22:38:58.979Z,91.20
2018-12-10T22:41:27.401Z,91.50
2018-12-10T22:43:55.781Z,91.60
2018-12-10T22:46:24.285Z,92.00
2018-12-10T22:48:52.673Z,91.60
2018-12-10T22:51:21.085Z,91.50
2018-12-10T22:53:49.478Z,91.40
2018-12-10T22:56:17.883Z,91.60
2018-12-10T22:58:46.282Z,91.50
2018-12-10T23:01:14.739Z,91.40
2018-12-10T23:03:43.211Z,91.30
2018-12-10T23:06:11.692Z,91.60
2018-12-10T23:08:40.303Z,91.40
2018-12-10T23:11:08.859Z,91.40
2018-12-10T23:13:37.449Z,91.30
2018-12-10T23:16:05.932Z,91.10
2018-12-10T23:18:34.343Z,91.00
2018-12-10T23:21:02.903Z,91.00
2018-12-10T23:23:31.386Z,91.00
2018-12-10T23:25:59.780Z,91.20
2018-12-10T23:28:28.228Z,91.10
2018-12-10T23:30:56.884Z,91.30
2018-12-10T23:33:25.304Z,91.60
2018-12-10T23:35:53.782Z,91.80
2018-12-10T23:38:22.194Z,92.10
2018-12-10T23:40:50.650Z,92.20
2018-12-10T23:43:24.141Z,92.30
2018-12-10T23:45:52.545Z,92.40
2018-12-10T23:48:20.949Z,92.50
2018-12-10T23:50:49.355Z,92.40
2018-12-10T23:53:17.757Z,92.40
2018-12-10T23:55:46.341Z,92.40
2018-12-10T23:58:14.747Z,92.40
